createdAt,value
2019-01-20T00:00:37.896Z,9.63
2019-01-20T00:03:10.092Z,9.88
2019-01-20T00:05:42.320Z,10.10
2019-01-20T00:08:15.055Z,10.15
2019-01-20T00:10:47.324Z,10.65
2019-01-20T00:13:19.837Z,10.18
2019-01-20T00:15:52.027Z,9.98
2019-01-20T00:18:24.067Z,11.05
2019-01-20T00:20:56.319Z,10.55
2019-01-20T00:23:28.842Z,10.08
2019-01-20T00:26:00.853Z,11.20
2019-01-20T00:28:32.816Z,10.55
2019-01-20T00:31:04.836Z,11.45
2019-01-20T00:33:36.805Z,11.33
2019-01-20T00:36:08.828Z,10.50
2019-01-20T00:38:40.884Z,11.05
2019-01-20T00:41:12.819Z,10.95
2019-01-20T00:43:44.852Z,11.03
2019-01-20T00:46:16.818Z,10.35
2019-01-20T00:48:48.814Z,10.88
2019-01-20T00:51:21.292Z,10.75
2019-01-20T00:53:53.884Z,11.18
2019-01-20T00:56:26.325Z,10.58
2019-01-20T00:58:59.598Z,10.65
2019-01-20T01:01:31.877Z,10.38
2019-01-20T01:04:03.831Z,10.72
2019-01-20T01:06:35.893Z,11.00
2019-01-20T01:09:10.903Z,11.20
2019-01-20T01:11:42.926Z,10.65
2019-01-20T01:14:15.353Z,10.80
2019-01-20T01:16:47.873Z,10.53
2019-01-20T01:19:19.870Z,11.35
2019-01-20T01:21:51.869Z,11.08
2019-01-20T01:24:23.857Z,10.53
2019-01-20T01:26:55.850Z,10.85
2019-01-20T01:29:27.858Z,11.38
2019-01-20T01:32:00.050Z,10.90
2019-01-20T01:34:31.886Z,10.90
2019-01-20T01:37:03.861Z,11.95
2019-01-20T01:39:35.858Z,10.00
2019-01-20T01:42:07.881Z,10.48
2019-01-20T01:44:39.855Z,10.48
2019-01-20T01:47:10.507Z,11.80
2019-01-20T01:49:42.850Z,10.95
2019-01-20T01:52:15.321Z,11.30
2019-01-20T01:54:47.526Z,10.85
2019-01-20T01:57:19.910Z,11.50
2019-01-20T01:59:51.912Z,10.80
2019-01-20T02:02:24.041Z,11.33
2019-01-20T02:04:56.186Z,11.33
2019-01-20T02:07:29.838Z,11.43
2019-01-20T02:10:01.793Z,11.75
2019-01-20T02:12:33.860Z,10.85
2019-01-20T02:16:55.385Z,10.67
2019-01-20T02:19:27.046Z,10.45
2019-01-20T02:21:58.781Z,10.75
2019-01-20T02:27:01.307Z,10.98
2019-01-20T02:32:16.337Z,10.97
2019-01-20T02:34:48.673Z,11.68
2019-01-20T02:37:20.844Z,12.25
2019-01-20T02:39:53.326Z,12.50
2019-01-20T02:42:25.413Z,12.03
2019-01-20T02:44:57.869Z,12.30
2019-01-20T02:47:30.015Z,12.03
2019-01-20T02:50:01.898Z,11.40
2019-01-20T02:52:34.371Z,11.97
2019-01-20T02:55:06.857Z,10.78
2019-01-20T02:57:38.924Z,12.35
2019-01-20T03:03:05.670Z,12.53
2019-01-20T03:05:37.974Z,10.68
2019-01-20T03:08:10.104Z,11.73
2019-01-20T03:10:42.333Z,11.80
2019-01-20T03:13:14.622Z,11.15
2019-01-20T03:15:46.514Z,11.47
2019-01-20T03:18:17.993Z,10.65
2019-01-20T03:20:50.329Z,11.70
2019-01-20T03:23:22.832Z,12.40
2019-01-20T03:25:54.830Z,10.85
2019-01-20T03:28:26.897Z,11.00
2019-01-20T03:30:58.857Z,10.95
2019-01-20T03:33:30.922Z,11.53
2019-01-20T03:36:03.327Z,12.15
2019-01-20T03:38:35.858Z,11.03
2019-01-20T03:41:07.826Z,12.00
2019-01-20T03:43:40.463Z,11.08
2019-01-20T03:46:13.332Z,11.40
2019-01-20T03:48:45.895Z,11.68
2019-01-20T03:51:17.868Z,10.75
2019-01-20T03:53:49.877Z,11.05
2019-01-20T03:56:21.838Z,10.63
2019-01-20T03:58:53.863Z,11.70
2019-01-20T04:01:26.502Z,10.72
2019-01-20T04:03:58.602Z,10.90
2019-01-20T04:06:30.854Z,11.18
2019-01-20T04:09:04.733Z,11.00
2019-01-20T04:14:07.776Z,10.70
2019-01-20T04:16:39.850Z,10.90
2019-01-20T04:19:11.892Z,11.33
2019-01-20T04:21:43.862Z,10.32
2019-01-20T04:24:15.820Z,10.25
2019-01-20T04:26:47.791Z,10.50
2019-01-20T04:29:21.327Z,10.18
2019-01-20T04:31:53.943Z,10.90
2019-01-20T04:34:25.877Z,10.48
2019-01-20T04:36:58.041Z,10.85
2019-01-20T04:39:29.914Z,11.28
2019-01-20T04:42:01.834Z,10.88
2019-01-20T04:44:33.820Z,11.15
2019-01-20T04:47:05.841Z,11.03
2019-01-20T04:49:37.901Z,9.33
2019-01-20T04:52:09.846Z,10.58
2019-01-20T04:54:43.349Z,10.58
2019-01-20T04:57:17.564Z,10.08
2019-01-20T04:59:49.838Z,10.50
2019-01-20T05:02:21.868Z,11.05
2019-01-20T05:04:53.904Z,10.40
2019-01-20T05:07:25.942Z,10.53
2019-01-20T05:09:57.843Z,11.93
2019-01-20T05:12:37.269Z,10.43
2019-01-20T05:15:03.278Z,11.83
2019-01-20T05:17:35.535Z,10.15
2019-01-20T05:20:09.002Z,11.40
2019-01-20T05:22:40.869Z,9.85
2019-01-20T05:25:13.023Z,10.93
2019-01-20T05:27:44.855Z,10.63
2019-01-20T05:30:24.451Z,10.80
2019-01-20T05:32:57.083Z,10.88
2019-01-20T05:35:29.329Z,10.60
2019-01-20T05:38:01.471Z,10.75
2019-01-20T05:40:33.717Z,11.12
2019-01-20T05:43:06.143Z,11.08
2019-01-20T05:45:38.504Z,11.85
2019-01-20T05:48:11.112Z,10.95
2019-01-20T05:50:44.828Z,10.65
2019-01-20T05:53:17.327Z,10.58
2019-01-20T05:55:49.881Z,10.48
2019-01-20T05:58:21.828Z,10.65
2019-01-20T06:00:53.915Z,11.20
2019-01-20T06:03:25.915Z,13.10
2019-01-20T06:05:57.850Z,13.28
2019-01-20T06:08:30.333Z,13.78
2019-01-20T06:11:02.904Z,13.20
2019-01-20T06:13:35.110Z,14.03
2019-01-20T06:16:07.863Z,13.35
2019-01-20T06:18:39.849Z,13.13
2019-01-20T06:21:11.881Z,13.43
2019-01-20T06:23:43.891Z,13.53
2019-01-20T06:26:15.882Z,13.25
2019-01-20T06:28:47.921Z,13.25
2019-01-20T06:31:19.867Z,13.08
2019-01-20T06:33:51.827Z,13.62
2019-01-20T06:36:23.887Z,13.13
2019-01-20T06:38:56.333Z,13.20
2019-01-20T06:41:28.484Z,12.45
2019-01-20T06:44:00.849Z,13.35
2019-01-20T06:46:32.911Z,13.75
2019-01-20T06:49:04.860Z,13.38
2019-01-20T06:51:37.016Z,14.23
2019-01-20T06:54:09.106Z,13.78
2019-01-20T06:56:41.393Z,12.95
2019-01-20T06:59:13.568Z,13.83
2019-01-20T07:01:45.998Z,13.20
2019-01-20T07:04:18.332Z,13.93
2019-01-20T07:06:51.081Z,13.70
2019-01-20T07:09:23.847Z,12.25
2019-01-20T07:11:56.083Z,12.00
2019-01-20T07:14:28.530Z,11.10
2019-01-20T07:17:00.904Z,11.88
2019-01-20T07:19:32.846Z,11.45
2019-01-20T07:22:05.100Z,11.50
2019-01-20T07:24:37.521Z,9.88
2019-01-20T07:27:09.919Z,11.22
2019-01-20T07:29:41.930Z,10.43
2019-01-20T07:32:13.897Z,11.40
2019-01-20T07:34:46.476Z,10.53
2019-01-20T07:37:20.072Z,10.35
2019-01-20T07:39:53.353Z,10.90
2019-01-20T07:42:25.975Z,11.88
2019-01-20T07:44:57.927Z,10.23
2019-01-20T07:47:30.107Z,10.90
2019-01-20T07:50:02.426Z,11.18
2019-01-20T07:52:34.944Z,11.15
2019-01-20T07:55:08.334Z,11.80
2019-01-20T07:57:40.906Z,15.45
2019-01-20T08:00:18.402Z,13.43
2019-01-20T08:02:50.892Z,15.55
2019-01-20T08:05:23.664Z,16.02
2019-01-20T08:07:56.006Z,14.98
2019-01-20T08:10:31.419Z,15.30
2019-01-20T08:13:03.822Z,14.90
2019-01-20T08:15:35.868Z,15.10
2019-01-20T08:18:08.435Z,14.40
2019-01-20T08:20:40.853Z,14.03
2019-01-20T08:23:12.865Z,14.78
2019-01-20T08:25:44.841Z,14.68
2019-01-20T08:28:16.822Z,13.65
2019-01-20T08:30:48.818Z,13.30
2019-01-20T08:33:20.849Z,12.78
2019-01-20T08:35:52.984Z,12.88
2019-01-20T08:38:25.323Z,12.40
2019-01-20T08:40:58.323Z,12.45
2019-01-20T08:43:32.444Z,11.78
2019-01-20T08:47:09.838Z,10.82
2019-01-20T08:49:41.919Z,11.88
2019-01-20T08:52:14.326Z,10.78
2019-01-20T08:54:46.862Z,11.30
2019-01-20T08:57:19.328Z,11.50
2019-01-20T08:59:51.835Z,11.40
2019-01-20T09:02:24.097Z,10.78
2019-01-20T09:04:56.363Z,11.55
2019-01-20T09:07:28.929Z,11.25
2019-01-20T09:10:00.928Z,10.45
2019-01-20T09:12:34.090Z,10.65
2019-01-20T09:15:07.288Z,10.40
2019-01-20T09:17:40.330Z,11.03
2019-01-20T09:20:13.314Z,12.55
2019-01-20T09:22:45.326Z,13.40
2019-01-20T09:25:17.900Z,12.40
2019-01-20T09:27:50.498Z,12.30
2019-01-20T09:30:23.903Z,14.05
2019-01-20T09:32:56.111Z,12.80
2019-01-20T09:35:28.928Z,11.63
2019-01-20T09:38:01.927Z,12.70
2019-01-20T09:40:34.599Z,12.10
2019-01-20T09:43:06.869Z,12.78
2019-01-20T09:45:39.347Z,13.25
2019-01-20T09:48:11.934Z,13.90
2019-01-20T09:50:44.282Z,13.40
2019-01-20T09:53:17.068Z,11.75
2019-01-20T09:55:51.920Z,11.35
2019-01-20T09:58:24.064Z,11.70
2019-01-20T10:00:56.167Z,10.58
2019-01-20T10:03:28.411Z,11.20
2019-01-20T10:06:00.891Z,11.95
2019-01-20T10:08:33.008Z,11.83
2019-01-20T10:11:05.277Z,11.63
2019-01-20T10:13:37.859Z,11.83
2019-01-20T10:16:09.882Z,11.57
2019-01-20T10:18:41.916Z,13.78
2019-01-20T10:21:13.741Z,13.05
2019-01-20T10:26:16.518Z,12.37
2019-01-20T10:28:48.366Z,12.07
2019-01-20T10:31:20.300Z,11.10
2019-01-20T10:33:51.836Z,12.25
2019-01-20T10:36:23.380Z,12.63
2019-01-20T10:38:55.306Z,10.68
2019-01-20T10:41:27.390Z,11.45
2019-01-20T10:44:02.347Z,10.80
2019-01-20T10:46:33.065Z,11.03
2019-01-20T10:49:05.359Z,10.25
2019-01-20T10:51:37.306Z,10.50
2019-01-20T10:54:08.868Z,11.22
2019-01-20T10:56:40.722Z,11.70
2019-01-20T11:01:44.021Z,10.68
2019-01-20T11:04:15.673Z,10.70
2019-01-20T11:06:47.389Z,12.25
2019-01-20T11:09:19.292Z,11.57
2019-01-20T11:11:52.317Z,10.45
2019-01-20T11:14:23.864Z,11.83
2019-01-20T11:16:55.721Z,11.63
2019-01-20T11:21:58.297Z,12.07
2019-01-20T11:24:30.058Z,10.75
2019-01-20T11:27:01.756Z,11.30
2019-01-20T11:29:33.773Z,9.67
2019-01-20T11:34:36.626Z,11.25
2019-01-20T11:37:08.389Z,11.60
2019-01-20T11:39:40.301Z,11.00
2019-01-20T11:42:13.024Z,10.40
2019-01-20T11:44:44.806Z,12.10
2019-01-20T11:47:18.268Z,9.93
2019-01-20T11:49:50.328Z,10.72
2019-01-20T11:52:21.943Z,10.25
2019-01-20T11:54:53.758Z,10.18
2019-01-20T11:59:57.310Z,11.10
2019-01-20T12:02:28.853Z,9.98
2019-01-20T12:05:00.408Z,11.22
2019-01-20T12:07:34.309Z,11.57
2019-01-20T12:10:07.306Z,9.53
2019-01-20T12:12:39.425Z,10.98
2019-01-20T12:15:13.345Z,11.28
2019-01-20T12:17:46.335Z,9.80
2019-01-20T12:20:17.940Z,11.12
2019-01-20T12:22:49.753Z,10.85
2019-01-20T12:27:55.333Z,10.70
2019-01-20T12:30:30.445Z,11.68
2019-01-20T12:33:02.309Z,11.00
2019-01-20T12:35:34.042Z,11.90
2019-01-20T12:38:05.812Z,10.68
2019-01-20T12:40:42.832Z,10.55
2019-01-20T12:43:14.751Z,11.73
2019-01-20T12:48:17.274Z,9.35
2019-01-20T12:50:49.340Z,10.55
2019-01-20T12:53:21.065Z,9.38
2019-01-20T12:55:52.774Z,10.28
2019-01-20T13:03:26.344Z,12.37
2019-01-20T13:05:58.386Z,12.18
2019-01-20T13:08:30.777Z,13.45
2019-01-20T13:13:33.638Z,12.68
2019-01-20T13:16:05.350Z,11.97
2019-01-20T13:18:37.353Z,11.97
2019-01-20T13:21:09.029Z,11.60
2019-01-20T13:23:41.349Z,13.30
2019-01-20T13:26:13.060Z,12.05
2019-01-20T13:28:44.886Z,12.70
2019-01-20T13:31:16.738Z,13.80
2019-01-20T13:36:19.818Z,13.00
2019-01-20T13:38:51.732Z,12.45
2019-01-20T13:44:01.937Z,12.73
2019-01-20T13:46:33.736Z,12.03
2019-01-20T13:51:36.313Z,12.55
2019-01-20T13:54:07.911Z,12.20
2019-01-20T13:56:39.775Z,12.80
2019-01-20T14:01:42.374Z,12.00
2019-01-20T14:04:14.777Z,10.80
2019-01-20T14:06:46.389Z,11.10
2019-01-20T14:09:18.268Z,11.40
2019-01-20T14:11:50.058Z,10.98
2019-01-20T14:14:21.756Z,10.28
2019-01-20T14:19:24.314Z,11.05
2019-01-20T14:21:55.911Z,10.08
2019-01-20T14:24:27.728Z,10.18
2019-01-20T14:32:01.741Z,10.00
2019-01-20T14:39:35.745Z,9.90
2019-01-20T14:44:38.320Z,10.70
2019-01-20T14:47:09.914Z,12.55
2019-01-20T14:49:41.754Z,12.18
2019-01-20T14:54:44.383Z,12.85
2019-01-20T14:57:16.021Z,13.85
2019-01-20T14:59:47.756Z,12.85
2019-01-20T15:04:50.732Z,11.90
2019-01-20T15:09:53.321Z,10.80
2019-01-20T15:12:24.888Z,10.55
2019-01-20T15:14:56.418Z,9.98
2019-01-20T15:17:28.437Z,9.55
2019-01-20T15:20:00.180Z,9.53
2019-01-20T15:22:31.775Z,9.23
2019-01-20T15:27:34.313Z,8.43
2019-01-20T15:30:08.767Z,9.25
2019-01-20T15:32:40.386Z,9.90
2019-01-20T15:35:12.318Z,8.90
2019-01-20T15:37:43.911Z,8.83
2019-01-20T15:40:17.801Z,9.43
2019-01-20T15:42:49.717Z,9.80
2019-01-20T15:47:53.800Z,8.45
2019-01-20T15:50:32.379Z,10.48
2019-01-20T15:53:04.314Z,10.58
2019-01-20T15:55:35.825Z,14.05
2019-01-20T15:58:07.874Z,14.55
2019-01-20T16:00:39.727Z,13.55
2019-01-20T16:05:42.311Z,14.78
2019-01-20T16:08:13.917Z,14.63
2019-01-20T16:10:45.687Z,14.58
2019-01-20T16:15:48.490Z,14.23
2019-01-20T16:18:20.724Z,14.13
2019-01-20T16:20:52.633Z,12.90
2019-01-20T16:23:24.394Z,11.30
2019-01-20T16:25:56.063Z,11.18
2019-01-20T16:28:27.779Z,11.12
2019-01-20T16:33:30.382Z,11.60
2019-01-20T16:36:02.426Z,10.30
2019-01-20T16:38:34.313Z,10.60
2019-01-20T16:41:06.071Z,13.78
2019-01-20T16:43:37.744Z,12.78
2019-01-20T16:48:40.631Z,10.38
2019-01-20T16:51:12.356Z,10.38
2019-01-20T16:53:44.786Z,10.70
2019-01-20T16:58:51.456Z,10.23
2019-01-20T17:01:21.786Z,9.80
2019-01-20T17:06:24.494Z,11.05
2019-01-20T17:08:56.318Z,11.45
2019-01-20T17:11:28.380Z,15.25
2019-01-20T17:14:00.067Z,16.27
2019-01-20T17:16:31.756Z,16.48
2019-01-20T17:21:34.398Z,16.70
2019-01-20T17:24:06.372Z,16.80
2019-01-20T17:26:38.066Z,17.45
2019-01-20T17:29:09.775Z,17.82
2019-01-20T17:34:12.302Z,20.00
2019-01-20T17:36:44.026Z,19.20
2019-01-20T17:39:15.750Z,17.75
2019-01-20T17:44:18.304Z,16.02
2019-01-20T17:46:49.843Z,14.80
2019-01-20T17:49:21.592Z,15.15
2019-01-20T17:51:53.249Z,13.68
2019-01-20T17:54:24.699Z,13.30
2019-01-20T17:59:27.736Z,13.58
2019-01-20T18:04:30.273Z,12.15
2019-01-20T18:07:01.885Z,16.40
2019-01-20T18:09:33.658Z,14.05
2019-01-20T18:12:05.405Z,13.75
2019-01-20T18:14:37.030Z,12.60
2019-01-20T18:17:08.804Z,14.25
2019-01-20T18:22:11.377Z,14.40
2019-01-20T18:26:21.520Z,14.67
2019-01-20T18:28:53.858Z,14.00
2019-01-20T18:31:26.119Z,15.45
2019-01-20T18:33:58.494Z,13.08
2019-01-20T18:36:31.097Z,14.70
2019-01-20T18:39:03.464Z,14.40
2019-01-20T18:41:35.914Z,13.95
2019-01-20T18:44:07.826Z,15.55
2019-01-20T18:46:40.438Z,18.98
2019-01-20T18:49:12.884Z,21.33
2019-01-20T18:51:45.323Z,20.57
2019-01-20T18:54:18.289Z,20.95
2019-01-20T18:56:51.030Z,20.88
2019-01-20T18:59:23.395Z,21.12
2019-01-20T19:01:56.030Z,22.40
2019-01-20T19:04:28.377Z,22.32
2019-01-20T19:07:00.970Z,21.82
2019-01-20T19:09:33.877Z,22.95
2019-01-20T19:12:05.865Z,22.37
2019-01-20T19:14:38.383Z,23.15
2019-01-20T19:17:11.357Z,22.93
2019-01-20T19:19:44.002Z,22.02
2019-01-20T19:22:16.326Z,22.48
2019-01-20T19:24:48.867Z,20.75
2019-01-20T19:27:21.356Z,20.75
2019-01-20T19:29:54.060Z,18.62
2019-01-20T19:32:27.025Z,18.85
2019-01-20T19:34:59.842Z,15.88
2019-01-20T19:37:32.074Z,15.63
2019-01-20T19:40:04.865Z,14.68
2019-01-20T19:42:37.724Z,14.83
2019-01-20T19:47:44.310Z,13.30
2019-01-20T19:50:17.339Z,14.98
2019-01-20T19:52:49.912Z,13.10
2019-01-20T19:55:29.960Z,13.40
2019-01-20T19:58:02.595Z,13.25
2019-01-20T20:00:36.317Z,13.90
2019-01-20T20:03:08.922Z,13.65
2019-01-20T20:05:40.919Z,12.73
2019-01-20T20:08:13.020Z,13.98
2019-01-20T20:10:45.368Z,13.18
2019-01-20T20:13:17.903Z,13.78
2019-01-20T20:16:41.814Z,14.63
2019-01-20T20:19:14.338Z,14.20
2019-01-20T20:21:46.875Z,15.53
2019-01-20T20:24:25.303Z,15.93
2019-01-20T20:26:53.843Z,17.02
2019-01-20T20:29:25.885Z,16.77
2019-01-20T20:31:57.826Z,16.25
2019-01-20T20:34:29.808Z,16.12
2019-01-20T20:37:01.856Z,16.15
2019-01-20T20:39:33.819Z,17.42
2019-01-20T20:42:06.031Z,17.23
2019-01-20T20:44:38.066Z,15.32
2019-01-20T20:47:10.323Z,17.25
2019-01-20T20:49:42.991Z,16.45
2019-01-20T20:52:15.305Z,16.62
2019-01-20T20:54:48.341Z,17.70
2019-01-20T20:57:20.830Z,17.70
2019-01-20T20:59:53.346Z,16.50
2019-01-20T21:02:26.014Z,17.52
2019-01-20T21:04:58.317Z,16.87
2019-01-20T21:07:30.897Z,16.02
2019-01-20T21:10:03.045Z,17.57
2019-01-20T21:12:35.367Z,16.27
2019-01-20T21:15:09.509Z,16.67
2019-01-20T21:17:48.178Z,15.95
2019-01-20T21:20:20.317Z,15.93
2019-01-20T21:22:52.870Z,15.53
2019-01-20T21:25:25.318Z,16.10
2019-01-20T21:27:57.816Z,16.93
2019-01-20T21:30:30.831Z,17.07
2019-01-20T21:33:02.873Z,16.90
2019-01-20T21:35:35.088Z,16.35
2019-01-20T21:38:07.307Z,15.58
2019-01-20T21:40:39.846Z,15.90
2019-01-20T21:43:11.871Z,16.20
2019-01-20T21:45:44.024Z,19.17
2019-01-20T21:48:16.077Z,16.17
2019-01-20T21:50:48.361Z,17.30
2019-01-20T21:53:20.417Z,16.77
2019-01-20T21:55:53.331Z,15.90
2019-01-20T21:58:25.851Z,16.77
2019-01-20T22:00:58.313Z,16.30
2019-01-20T22:03:31.341Z,14.90
2019-01-20T22:06:03.886Z,15.95
2019-01-20T22:08:36.525Z,16.55
2019-01-20T22:11:09.351Z,16.45
2019-01-20T22:13:42.046Z,16.23
2019-01-20T22:16:14.374Z,18.32
2019-01-20T22:18:46.881Z,16.73
2019-01-20T22:21:19.074Z,15.30
2019-01-20T22:23:51.396Z,17.42
2019-01-20T22:26:23.934Z,16.52
2019-01-20T22:28:56.349Z,17.10
2019-01-20T22:31:29.017Z,17.92
2019-01-20T22:34:02.450Z,17.30
2019-01-20T22:36:35.029Z,18.30
2019-01-20T22:39:10.364Z,17.02
2019-01-20T22:41:45.033Z,16.87
2019-01-20T22:44:17.353Z,18.00
2019-01-20T22:46:49.854Z,16.85
2019-01-20T22:49:21.843Z,16.32
2019-01-20T22:51:54.285Z,16.17
2019-01-20T22:54:26.909Z,16.62
2019-01-20T22:56:59.036Z,17.02
2019-01-20T22:59:31.333Z,18.27
2019-01-20T23:02:04.922Z,17.42
2019-01-20T23:04:39.094Z,17.23
2019-01-20T23:07:11.662Z,17.35
2019-01-20T23:09:44.118Z,19.10
2019-01-20T23:12:16.808Z,19.20
2019-01-20T23:14:48.817Z,17.87
2019-01-20T23:17:20.915Z,19.20
2019-01-20T23:19:53.520Z,17.95
2019-01-20T23:22:26.135Z,18.20
2019-01-20T23:25:00.375Z,17.02
2019-01-20T23:27:35.904Z,18.73
2019-01-20T23:30:10.348Z,16.67
2019-01-20T23:32:42.893Z,17.42
2019-01-20T23:35:15.764Z,16.90
2019-01-20T23:40:19.537Z,18.92
2019-01-20T23:42:51.945Z,17.62
2019-01-20T23:45:24.109Z,17.48
2019-01-20T23:47:56.558Z,18.40
2019-01-20T23:50:28.894Z,17.20
2019-01-20T23:53:00.900Z,17.62
2019-01-20T23:55:35.261Z,17.32
2019-01-20T23:58:08.371Z,17.40
